Runge, Texas
Current Conditions -  °F | °C
As of 9:35 PM on Saturday 24 Jan 2015 (Local Time) from KBEA Reporting Station
Clear Clear  
Wind Chill: 46°   Ceiling: Unl
Heat Index: 48°   Visibility: 10mi
Dew Point: 35°   Wind: 5mph
Humidity: 61%   Direction: 270°W
Pressure: 30.14"   Gusts: NA
Location:  28.88°N, 97.71°W
Report Text: KBEA 250335Z AUTO 27004KT 10SM CLR 09/02 A3014 RMK AO2 T00880017
Loading
Personal Weather Stations






























Interactive Weather Map New forecast layout! Learn more

10-Day Weather Forecast

Advertisements
Track Severe Weather on mobile